x

Edisto - 41 Nm Southeast Of Charleston, Sc (41004) Wave Buoy

6:50am - Sun 1st Mar 2015 All times are EST. -5 hours from GMT.

  • Sig Wave height 8.2ft
  • Swell Direction
  • Peak Period 8s
  • Average Period 6s
  • Wind
    18mph, 25mph gusts
  • Sea Temp 66°f
  • Air Temp 67°f
  • Sea Pressure 1030.2mb
  • Edisto - 41 Nm Southeast Of Charleston, Sc
  • Edisto - 41 Nm Southeast Of Charleston, Sc

More Historic Weather Station data

Upgrade to MSW Pro to gain access to the past 30 days of data for over 8000 Wavebouys and Weather Stations around the globe.

Join Pro

Comparision Forecast

View Surf forecast
   
Sun 03/01 6:50am 8ft 8s 6s 18 25 mph 1030.2mb 66f 67f
5:50am 9ft 7s 6s 20 22 mph 1029.6mb 66f 68f
4:50am 10ft 9s 6s 22 29 mph 1029.5mb 66f 58f
3:50am 10ft 8s 6s 27 31 mph 1029.8mb 66f 57f
2:50am 10.5ft 8s 6s 27 31 mph 1030.4mb 67f 58f
1:50am 10ft 9s 6s 27 31 mph 1031mb 67f 57f
12:50am 10ft 9s 6s 27 34 mph 1031.7mb 67f 58f
Sat 02/28 11:50pm 10.5ft 9s 6s 29 36 mph 1032mb 68f 58f
10:50pm 10.5ft 9s 6s 29 34 mph 1032.8mb 67f 57f
9:50pm 11ft 8s 6s 29 36 mph 1033.5mb 67f 56f
8:50pm 10.5ft 8s 6s 31 40 mph 1033.1mb 68f 56f
7:50pm 10ft 9s 6s 34 40 mph 1032.8mb 68f 55f
6:50pm 9.5ft 8s 6s 31 38 mph 1033.2mb 68f 54f
5:50pm 9ft 9s 6s 31 38 mph 1032.6mb 67f 53f
4:50pm 9ft 8s 6s 31 38 mph 1032.7mb 67f 53f
3:50pm 9ft 8s 6s 31 38 mph 1032.6mb 66f 52f
2:50pm 10ft 8s 6s 34 40 mph 1032.1mb 66f 52f
1:50pm 9ft 8s 6s 31 38 mph 1032.7mb 66f 52f
12:50pm 8.5ft 8s 6s 31 38 mph 1033.4mb 65f 53f
11:50am 9ft 8s 6s 31 38 mph 1033.9mb 65f 52f
10:50am 8ft 7s 5s 34 40 mph 1033.9mb 65f 52f
9:50am 8ft 7s 5s 31 38 mph 1033.8mb 65f 53f
8:50am 8.5ft 7s 6s 31 38 mph 1033.3mb 65f 54f
7:50am 7.5ft 7s 5s 31 38 mph 1032.1mb 65f 55f
6:50am 7.5ft 7s 5s 29 36 mph 1031.5mb 65f 55f
5:50am 7ft 6s 5s 29 34 mph 1030.9mb 65f 55f
4:50am 7ft 6s 5s 27 31 mph 1030mb 65f 56f
3:50am 6.5ft 6s 5s 27 31 mph 1029.3mb 65f 55f
2:50am 6ft 6s 5s 27 34 mph 1029.1mb 65f 56f
1:50am 6ft 6s 5s 25 29 mph 1029.9mb 65f 56f
12:50am 5.5ft 6s 5s 25 29 mph 1029.7mb 64f 55f
Fri 02/27 11:50pm 6ft 6s 5s 22 29 mph 1029.9mb 64f 54f
10:50pm 5ft 6s 5s 22 27 mph 1030.1mb 64f 53f
9:50pm 5ft 6s 5s 22 27 mph 1029.9mb 65f 53f
8:50pm 5ft 6s 5s 20 25 mph 1029.2mb 65f 53f
7:50pm 4.5ft 6s 5s 20 27 mph 1028.5mb 66f 52f
6:50pm 4.5ft 6s 5s 18 25 mph 1027.9mb 66f 51f
5:50pm 5ft 6s 5s 20 25 mph 1027.3mb 66f 51f
4:50pm 5ft 5s 5s 20 25 mph 1026.9mb 66f 50f
3:50pm 5ft 10s 5s 22 27 mph 1026.6mb 66f 50f
2:50pm 5ft 9s 5s 22 27 mph 1026.9mb 66f 49f
1:50pm 4.5ft 8s 5s 20 25 mph 1026.9mb 66f 49f
12:50pm 5ft 11s 5s 20 25 mph 1027.5mb 66f 48f
11:50am 5ft 10s 5s 18 25 mph 1027.9mb 66f 48f
10:50am 5ft 10s 5s 18 25 mph 1027.4mb 66f 47f
9:50am 5ft 8s 5s 20 25 mph 1026mb 66f 47f
8:50am 5ft 8s 5s 18 25 mph 1025.5mb 65f 47f
7:50am 5ft 8s 5s 18 25 mph 1024.6mb 65f 47f
6:50am 4.5ft 10s 5s 18 22 mph 1023.5mb 65f 46f
5:50am 5ft 9s 5s 16 22 mph 1023.2mb 65f 46f
4:50am 4.5ft 8s 5s 18 22 mph 1021.8mb 65f 46f
3:50am 4.5ft 9s 6s 18 20 mph 1021.2mb 65f 47f
2:50am 4.5ft 9s 6s 11 16 mph 1020.6mb 65f 46f
1:50am 5ft 8s 6s 16 20 mph 1020.3mb 65f 46f
12:50am 5ft 9s 6s 13 20 mph 1020.2mb 65f 45f
Thu 02/26 11:50pm 4.5ft 10s 6s 13 18 mph 1020.3mb 65f 46f
10:50pm 5ft 9s 6s 13 20 mph 1020.1mb 65f 46f
9:50pm 4.5ft 9s 6s 13 22 mph 1019.6mb 66f 45f
8:50pm 4.5ft 9s 5s 13 18 mph 1018.9mb 66f 45f
7:50pm 4.5ft 10s 5s 16 20 mph 1017.7mb 66f 45f
6:50pm 5.5ft 8s 6s 16 22 mph 1016.4mb 66f 46f
5:50pm 5ft 10s 6s 16 22 mph 1015.5mb 65f 45f
4:50pm 5.5ft 11s 6s 18 22 mph 1013.9mb 65f 46f
3:50pm 6ft 8s 6s 13 18 mph 1013mb 66f 45f
2:50pm 6ft 9s 6s 16 20 mph 1012.1mb 66f 44f
1:50pm 6ft 8s 6s 18 22 mph 1011mb 66f 44f
12:50pm 7ft 10s 6s 18 22 mph 1010.9mb 66f 44f
11:50am 7.5ft 9s 6s 20 25 mph 1010.1mb 66f 44f
10:50am 8ft 8s 6s 18 25 mph 1009.2mb 66f 44f
9:50am 8.5ft 9s 6s 22 31 mph 1007.9mb 66f 44f
8:50am 9ft 9s 6s 22 29 mph 1006.2mb 66f 45f
7:50am 10.5ft 9s 6s 22 27 mph 1004.9mb 66f 46f
6:50am 11ft 9s 7s 29 36 mph 1002.8mb 66f 49f
5:50am 11ft 9s 6s 36 45 mph 999.5mb 66f 58f
4:50am 13ft 8s 7s 38 49 mph 997mb 67f 66f
3:50am 11ft 7s 6s 40 49 mph 996.1mb 67f 68f
2:50am 8.5ft 7s 6s 36 45 mph 997.3mb 67f 69f
1:50am 7ft 6s 6s 7 11 mph 1000.4mb 67f 64f
12:50am 6ft 6s 5s 20 29 mph 1001.2mb 67f 59f
Wed 02/25 11:50pm 6ft 6s 5s 25 29 mph 1002.3mb 67f 58f
10:50pm 5ft 4s 5s 27 31 mph 1003.4mb 67f 57f
9:50pm 4ft 4s 5s 22 27 mph 1005.3mb 68f 56f
8:50pm 3.5ft 11s 5s 20 25 mph 1007.6mb 68f 55f
7:50pm 3.5ft 11s 5s 20 22 mph 1008.4mb 68f 54f
6:50pm 3ft 11s 5s 20 27 mph 1008.3mb 68f 53f
5:50pm 3ft 10s 6s 16 20 mph 1010.7mb 68f 51f
4:50pm 3.5ft 10s 7s 11 13 mph 1011mb 68f 51f
3:50pm 3.5ft 10s 7s 9 13 mph 1012.3mb 68f 48f
2:50pm 3ft 11s 7s 11 13 mph 1013.1mb 68f 47f
1:50pm 3ft 10s 6s 7 11 mph 1014.3mb 68f 46f